sensor_id;sensor_type;location;lat;lon;timestamp;P1;durP1;ratioP1;P2;durP2;ratioP2
42244;SDS011;27912;51.828;5.688;2022-08-25T00:01:54;3.58;;;2.13;;
42244;SDS011;27912;51.828;5.688;2022-08-25T00:04:23;6.22;;;2.70;;
42244;SDS011;27912;51.828;5.688;2022-08-25T00:06:53;5.18;;;2.80;;
42244;SDS011;27912;51.828;5.688;2022-08-25T00:09:20;5.30;;;2.88;;
42244;SDS011;27912;51.828;5.688;2022-08-25T00:11:48;4.28;;;2.88;;
42244;SDS011;27912;51.828;5.688;2022-08-25T00:14:16;3.92;;;2.72;;
42244;SDS011;27912;51.828;5.688;2022-08-25T00:16:43;3.10;;;2.75;;
42244;SDS011;27912;51.828;5.688;2022-08-25T00:19:11;4.93;;;3.33;;
42244;SDS011;27912;51.828;5.688;2022-08-25T00:21:42;3.83;;;3.03;;
42244;SDS011;27912;51.828;5.688;2022-08-25T00:24:08;8.50;;;3.83;;
42244;SDS011;27912;51.828;5.688;2022-08-25T00:26:37;5.57;;;3.53;;
42244;SDS011;27912;51.828;5.688;2022-08-25T00:29:04;4.10;;;3.70;;
42244;SDS011;27912;51.828;5.688;2022-08-25T00:31:30;6.40;;;3.60;;
42244;SDS011;27912;51.828;5.688;2022-08-25T00:33:55;3.55;;;3.25;;
42244;SDS011;27912;51.828;5.688;2022-08-25T00:36:21;5.82;;;3.88;;
42244;SDS011;27912;51.828;5.688;2022-08-25T00:38:47;5.10;;;3.75;;
42244;SDS011;27912;51.828;5.688;2022-08-25T00:41:16;4.32;;;3.65;;
42244;SDS011;27912;51.828;5.688;2022-08-25T00:46:11;5.45;;;4.10;;
42244;SDS011;27912;51.828;5.688;2022-08-25T00:48:39;8.02;;;3.95;;
42244;SDS011;27912;51.828;5.688;2022-08-25T00:51:07;6.00;;;3.97;;
42244;SDS011;27912;51.828;5.688;2022-08-25T00:53:35;5.78;;;4.53;;
42244;SDS011;27912;51.828;5.688;2022-08-25T00:56:03;6.25;;;5.00;;
42244;SDS011;27912;51.828;5.688;2022-08-25T00:58:29;7.57;;;4.40;;
42244;SDS011;27912;51.828;5.688;2022-08-25T01:00:56;6.65;;;4.30;;
42244;SDS011;27912;51.828;5.688;2022-08-25T01:03:23;5.18;;;4.15;;
42244;SDS011;27912;51.828;5.688;2022-08-25T01:05:50;4.47;;;4.07;;
42244;SDS011;27912;51.828;5.688;2022-08-25T01:08:17;5.18;;;3.67;;
42244;SDS011;27912;51.828;5.688;2022-08-25T01:10:46;4.10;;;3.53;;
42244;SDS011;27912;51.828;5.688;2022-08-25T01:13:15;6.10;;;4.28;;
42244;SDS011;27912;51.828;5.688;2022-08-25T01:15:45;4.55;;;3.92;;
42244;SDS011;27912;51.828;5.688;2022-08-25T01:18:13;5.18;;;4.05;;
42244;SDS011;27912;51.828;5.688;2022-08-25T01:20:39;7.13;;;4.13;;
42244;SDS011;27912;51.828;5.688;2022-08-25T01:23:04;6.63;;;4.30;;
42244;SDS011;27912;51.828;5.688;2022-08-25T01:25:50;5.85;;;4.60;;
42244;SDS011;27912;51.828;5.688;2022-08-25T01:28:17;6.38;;;4.70;;
42244;SDS011;27912;51.828;5.688;2022-08-25T01:30:44;4.50;;;3.92;;
42244;SDS011;27912;51.828;5.688;2022-08-25T01:33:10;10.00;;;5.43;;
42244;SDS011;27912;51.828;5.688;2022-08-25T01:35:36;6.43;;;4.53;;
42244;SDS011;27912;51.828;5.688;2022-08-25T01:38:03;5.78;;;5.15;;
42244;SDS011;27912;51.828;5.688;2022-08-25T01:40:30;6.88;;;5.03;;
42244;SDS011;27912;51.828;5.688;2022-08-25T01:43:38;7.07;;;4.97;;
42244;SDS011;27912;51.828;5.688;2022-08-25T01:45:55;9.50;;;4.90;;
42244;SDS011;27912;51.828;5.688;2022-08-25T01:48:22;7.53;;;4.85;;
42244;SDS011;27912;51.828;5.688;2022-08-25T01:50:47;4.88;;;4.30;;
42244;SDS011;27912;51.828;5.688;2022-08-25T01:53:26;7.18;;;4.90;;
42244;SDS011;27912;51.828;5.688;2022-08-25T01:55:53;7.05;;;4.43;;
42244;SDS011;27912;51.828;5.688;2022-08-25T01:58:30;7.70;;;4.03;;
42244;SDS011;27912;51.828;5.688;2022-08-25T02:00:58;7.75;;;3.65;;
42244;SDS011;27912;51.828;5.688;2022-08-25T02:03:25;6.97;;;4.25;;
42244;SDS011;27912;51.828;5.688;2022-08-25T02:05:52;6.10;;;4.88;;
42244;SDS011;27912;51.828;5.688;2022-08-25T02:08:18;6.78;;;4.90;;
42244;SDS011;27912;51.828;5.688;2022-08-25T02:10:45;6.50;;;5.20;;
42244;SDS011;27912;51.828;5.688;2022-08-25T02:13:12;5.05;;;3.97;;
42244;SDS011;27912;51.828;5.688;2022-08-25T02:15:44;6.25;;;4.22;;
42244;SDS011;27912;51.828;5.688;2022-08-25T02:18:12;4.65;;;3.95;;
42244;SDS011;27912;51.828;5.688;2022-08-25T02:20:38;12.40;;;4.70;;
42244;SDS011;27912;51.828;5.688;2022-08-25T02:23:04;8.30;;;4.80;;
42244;SDS011;27912;51.828;5.688;2022-08-25T02:25:30;6.05;;;4.25;;
42244;SDS011;27912;51.828;5.688;2022-08-25T02:27:56;6.50;;;4.70;;
42244;SDS011;27912;51.828;5.688;2022-08-25T02:30:22;6.45;;;4.63;;
42244;SDS011;27912;51.828;5.688;2022-08-25T02:32:48;6.43;;;5.00;;
42244;SDS011;27912;51.828;5.688;2022-08-25T02:35:14;6.75;;;5.10;;
42244;SDS011;27912;51.828;5.688;2022-08-25T02:37:41;9.68;;;4.97;;
42244;SDS011;27912;51.828;5.688;2022-08-25T02:40:06;5.75;;;5.13;;
42244;SDS011;27912;51.828;5.688;2022-08-25T02:42:33;8.75;;;5.63;;
42244;SDS011;27912;51.828;5.688;2022-08-25T02:44:58;5.78;;;4.65;;
42244;SDS011;27912;51.828;5.688;2022-08-25T02:47:24;5.55;;;4.82;;
42244;SDS011;27912;51.828;5.688;2022-08-25T02:49:50;8.25;;;5.53;;
42244;SDS011;27912;51.828;5.688;2022-08-25T02:52:15;7.15;;;5.00;;
42244;SDS011;27912;51.828;5.688;2022-08-25T02:54:41;9.02;;;5.07;;
42244;SDS011;27912;51.828;5.688;2022-08-25T02:57:08;4.95;;;3.97;;
42244;SDS011;27912;51.828;5.688;2022-08-25T02:59:35;5.68;;;3.90;;
42244;SDS011;27912;51.828;5.688;2022-08-25T03:02:01;7.57;;;4.20;;
42244;SDS011;27912;51.828;5.688;2022-08-25T03:04:27;5.15;;;3.75;;
42244;SDS011;27912;51.828;5.688;2022-08-25T03:06:53;5.40;;;3.47;;
42244;SDS011;27912;51.828;5.688;2022-08-25T03:09:19;6.47;;;3.72;;
42244;SDS011;27912;51.828;5.688;2022-08-25T03:11:46;5.22;;;3.85;;
42244;SDS011;27912;51.828;5.688;2022-08-25T03:14:11;4.70;;;3.35;;
42244;SDS011;27912;51.828;5.688;2022-08-25T03:16:37;5.25;;;3.28;;
42244;SDS011;27912;51.828;5.688;2022-08-25T03:19:04;6.05;;;2.92;;
42244;SDS011;27912;51.828;5.688;2022-08-25T03:21:30;3.80;;;3.00;;
42244;SDS011;27912;51.828;5.688;2022-08-25T03:23:56;7.18;;;3.33;;
42244;SDS011;27912;51.828;5.688;2022-08-25T03:26:23;4.28;;;3.05;;
42244;SDS011;27912;51.828;5.688;2022-08-25T03:29:08;3.45;;;2.63;;
42244;SDS011;27912;51.828;5.688;2022-08-25T03:31:34;6.00;;;3.22;;
42244;SDS011;27912;51.828;5.688;2022-08-25T03:34:01;3.10;;;1.83;;
42244;SDS011;27912;51.828;5.688;2022-08-25T03:36:27;4.25;;;2.20;;
42244;SDS011;27912;51.828;5.688;2022-08-25T03:38:53;4.53;;;1.77;;
42244;SDS011;27912;51.828;5.688;2022-08-25T03:41:26;4.25;;;1.90;;
42244;SDS011;27912;51.828;5.688;2022-08-25T03:43:53;5.72;;;1.67;;
42244;SDS011;27912;51.828;5.688;2022-08-25T03:46:29;3.65;;;1.50;;
42244;SDS011;27912;51.828;5.688;2022-08-25T03:48:56;2.97;;;1.55;;
42244;SDS011;27912;51.828;5.688;2022-08-25T03:51:30;2.72;;;1.30;;
42244;SDS011;27912;51.828;5.688;2022-08-25T03:54:02;2.72;;;1.38;;
42244;SDS011;27912;51.828;5.688;2022-08-25T03:56:29;4.50;;;1.45;;
42244;SDS011;27912;51.828;5.688;2022-08-25T03:58:55;3.00;;;1.35;;
42244;SDS011;27912;51.828;5.688;2022-08-25T04:01:21;5.47;;;1.17;;
42244;SDS011;27912;51.828;5.688;2022-08-25T04:03:47;2.72;;;1.35;;
42244;SDS011;27912;51.828;5.688;2022-08-25T04:06:14;7.28;;;1.55;;
42244;SDS011;27912;51.828;5.688;2022-08-25T04:08:40;2.70;;;1.33;;
42244;SDS011;27912;51.828;5.688;2022-08-25T04:11:14;4.13;;;1.55;;
42244;SDS011;27912;51.828;5.688;2022-08-25T04:13:42;2.97;;;1.10;;
42244;SDS011;27912;51.828;5.688;2022-08-25T04:16:10;3.63;;;1.80;;
42244;SDS011;27912;51.828;5.688;2022-08-25T04:18:40;5.20;;;1.00;;
42244;SDS011;27912;51.828;5.688;2022-08-25T04:21:07;3.28;;;1.13;;
42244;SDS011;27912;51.828;5.688;2022-08-25T04:23:34;3.33;;;1.05;;
42244;SDS011;27912;51.828;5.688;2022-08-25T04:26:01;5.32;;;1.10;;
42244;SDS011;27912;51.828;5.688;2022-08-25T04:28:32;3.15;;;0.80;;
42244;SDS011;27912;51.828;5.688;2022-08-25T04:30:57;4.32;;;1.23;;
42244;SDS011;27912;51.828;5.688;2022-08-25T04:33:23;4.88;;;1.25;;
42244;SDS011;27912;51.828;5.688;2022-08-25T04:35:57;4.50;;;1.23;;
42244;SDS011;27912;51.828;5.688;2022-08-25T04:38:25;4.60;;;0.65;;
42244;SDS011;27912;51.828;5.688;2022-08-25T04:40:58;5.57;;;0.82;;
42244;SDS011;27912;51.828;5.688;2022-08-25T04:43:24;2.90;;;0.90;;
42244;SDS011;27912;51.828;5.688;2022-08-25T04:45:50;2.90;;;1.27;;
42244;SDS011;27912;51.828;5.688;2022-08-25T04:48:16;3.70;;;1.02;;
42244;SDS011;27912;51.828;5.688;2022-08-25T04:50:42;4.38;;;1.00;;
42244;SDS011;27912;51.828;5.688;2022-08-25T04:53:08;4.30;;;1.10;;
42244;SDS011;27912;51.828;5.688;2022-08-25T04:55:39;3.92;;;1.10;;
42244;SDS011;27912;51.828;5.688;2022-08-25T04:58:05;4.80;;;1.10;;
42244;SDS011;27912;51.828;5.688;2022-08-25T05:00:32;2.83;;;0.85;;
42244;SDS011;27912;51.828;5.688;2022-08-25T05:02:59;4.68;;;1.20;;
42244;SDS011;27912;51.828;5.688;2022-08-25T05:05:25;3.38;;;1.27;;
42244;SDS011;27912;51.828;5.688;2022-08-25T05:07:51;4.28;;;1.10;;
42244;SDS011;27912;51.828;5.688;2022-08-25T05:10:16;10.60;;;0.98;;
42244;SDS011;27912;51.828;5.688;2022-08-25T05:12:44;6.55;;;0.90;;
42244;SDS011;27912;51.828;5.688;2022-08-25T05:15:09;4.38;;;0.88;;
42244;SDS011;27912;51.828;5.688;2022-08-25T05:17:54;4.68;;;1.23;;
42244;SDS011;27912;51.828;5.688;2022-08-25T05:20:20;5.72;;;1.10;;
42244;SDS011;27912;51.828;5.688;2022-08-25T05:22:45;6.30;;;1.08;;
42244;SDS011;27912;51.828;5.688;2022-08-25T05:25:11;6.90;;;1.08;;
42244;SDS011;27912;51.828;5.688;2022-08-25T05:27:38;3.65;;;1.00;;
42244;SDS011;27912;51.828;5.688;2022-08-25T05:30:05;3.38;;;1.00;;
42244;SDS011;27912;51.828;5.688;2022-08-25T05:32:31;5.25;;;0.90;;
42244;SDS011;27912;51.828;5.688;2022-08-25T05:34:56;3.25;;;1.08;;
42244;SDS011;27912;51.828;5.688;2022-08-25T05:37:22;5.10;;;1.00;;
42244;SDS011;27912;51.828;5.688;2022-08-25T05:39:47;9.13;;;1.13;;
42244;SDS011;27912;51.828;5.688;2022-08-25T05:42:13;3.72;;;1.10;;
42244;SDS011;27912;51.828;5.688;2022-08-25T05:44:39;7.07;;;1.13;;
42244;SDS011;27912;51.828;5.688;2022-08-25T05:47:05;5.07;;;1.30;;
42244;SDS011;27912;51.828;5.688;2022-08-25T05:49:31;3.05;;;1.20;;
42244;SDS011;27912;51.828;5.688;2022-08-25T05:51:56;2.83;;;1.00;;
42244;SDS011;27912;51.828;5.688;2022-08-25T05:54:22;3.85;;;1.00;;
42244;SDS011;27912;51.828;5.688;2022-08-25T05:56:48;4.10;;;1.27;;
42244;SDS011;27912;51.828;5.688;2022-08-25T05:59:13;7.18;;;1.27;;
42244;SDS011;27912;51.828;5.688;2022-08-25T06:01:39;4.38;;;1.00;;
42244;SDS011;27912;51.828;5.688;2022-08-25T06:04:23;3.28;;;0.93;;
42244;SDS011;27912;51.828;5.688;2022-08-25T06:06:49;4.65;;;1.00;;
42244;SDS011;27912;51.828;5.688;2022-08-25T06:09:18;7.10;;;1.30;;
42244;SDS011;27912;51.828;5.688;2022-08-25T06:11:46;4.45;;;1.20;;
42244;SDS011;27912;51.828;5.688;2022-08-25T06:14:12;5.20;;;1.02;;
42244;SDS011;27912;51.828;5.688;2022-08-25T06:16:37;2.83;;;1.10;;
42244;SDS011;27912;51.828;5.688;2022-08-25T06:19:04;4.97;;;1.25;;
42244;SDS011;27912;51.828;5.688;2022-08-25T06:21:31;3.25;;;0.88;;
42244;SDS011;27912;51.828;5.688;2022-08-25T06:23:56;4.20;;;1.10;;
42244;SDS011;27912;51.828;5.688;2022-08-25T06:26:22;5.28;;;1.00;;
42244;SDS011;27912;51.828;5.688;2022-08-25T06:28:48;3.42;;;0.82;;
42244;SDS011;27912;51.828;5.688;2022-08-25T06:31:15;4.97;;;1.17;;
42244;SDS011;27912;51.828;5.688;2022-08-25T06:33:41;5.30;;;1.35;;
42244;SDS011;27912;51.828;5.688;2022-08-25T06:36:08;3.53;;;1.10;;
42244;SDS011;27912;51.828;5.688;2022-08-25T06:38:33;4.35;;;0.90;;
42244;SDS011;27912;51.828;5.688;2022-08-25T06:41:01;2.53;;;1.00;;
42244;SDS011;27912;51.828;5.688;2022-08-25T06:43:30;4.53;;;1.20;;
42244;SDS011;27912;51.828;5.688;2022-08-25T06:45:57;3.40;;;1.13;;
42244;SDS011;27912;51.828;5.688;2022-08-25T06:48:31;3.70;;;1.25;;
42244;SDS011;27912;51.828;5.688;2022-08-25T06:50:58;3.22;;;1.10;;
42244;SDS011;27912;51.828;5.688;2022-08-25T06:53:23;3.58;;;1.10;;
42244;SDS011;27912;51.828;5.688;2022-08-25T06:55:56;4.40;;;1.98;;
42244;SDS011;27912;51.828;5.688;2022-08-25T06:58:22;5.72;;;1.10;;
42244;SDS011;27912;51.828;5.688;2022-08-25T07:00:47;2.72;;;0.93;;
42244;SDS011;27912;51.828;5.688;2022-08-25T07:03:13;4.53;;;1.10;;
42244;SDS011;27912;51.828;5.688;2022-08-25T07:05:39;2.70;;;1.15;;
42244;SDS011;27912;51.828;5.688;2022-08-25T07:08:04;4.22;;;1.20;;
42244;SDS011;27912;51.828;5.688;2022-08-25T07:10:30;4.60;;;1.25;;
42244;SDS011;27912;51.828;5.688;2022-08-25T07:12:56;4.25;;;1.48;;
42244;SDS011;27912;51.828;5.688;2022-08-25T07:15:22;3.42;;;1.30;;
42244;SDS011;27912;51.828;5.688;2022-08-25T07:17:47;4.30;;;1.30;;
42244;SDS011;27912;51.828;5.688;2022-08-25T07:20:14;4.78;;;1.38;;
42244;SDS011;27912;51.828;5.688;2022-08-25T07:22:40;5.15;;;1.20;;
42244;SDS011;27912;51.828;5.688;2022-08-25T07:25:06;4.97;;;1.30;;
42244;SDS011;27912;51.828;5.688;2022-08-25T07:27:33;4.65;;;1.08;;
42244;SDS011;27912;51.828;5.688;2022-08-25T07:29:58;5.60;;;1.20;;
42244;SDS011;27912;51.828;5.688;2022-08-25T07:32:24;13.75;;;1.38;;
42244;SDS011;27912;51.828;5.688;2022-08-25T07:34:49;5.10;;;1.30;;
42244;SDS011;27912;51.828;5.688;2022-08-25T07:37:36;4.90;;;1.50;;
42244;SDS011;27912;51.828;5.688;2022-08-25T07:40:03;8.00;;;1.30;;
42244;SDS011;27912;51.828;5.688;2022-08-25T07:42:29;3.80;;;1.10;;
42244;SDS011;27912;51.828;5.688;2022-08-25T07:44:55;10.15;;;1.23;;
42244;SDS011;27912;51.828;5.688;2022-08-25T07:47:20;3.92;;;1.17;;
42244;SDS011;27912;51.828;5.688;2022-08-25T07:49:46;4.72;;;1.50;;
42244;SDS011;27912;51.828;5.688;2022-08-25T07:52:11;5.72;;;1.23;;
42244;SDS011;27912;51.828;5.688;2022-08-25T07:54:37;4.07;;;1.20;;
42244;SDS011;27912;51.828;5.688;2022-08-25T07:57:03;4.88;;;1.55;;
42244;SDS011;27912;51.828;5.688;2022-08-25T07:59:29;6.68;;;1.70;;
42244;SDS011;27912;51.828;5.688;2022-08-25T08:01:55;6.97;;;1.45;;
42244;SDS011;27912;51.828;5.688;2022-08-25T08:04:20;5.38;;;1.58;;
42244;SDS011;27912;51.828;5.688;2022-08-25T08:06:46;7.90;;;1.20;;
42244;SDS011;27912;51.828;5.688;2022-08-25T08:09:12;3.40;;;1.08;;
42244;SDS011;27912;51.828;5.688;2022-08-25T08:11:37;6.07;;;1.23;;
42244;SDS011;27912;51.828;5.688;2022-08-25T08:14:08;3.88;;;1.50;;
42244;SDS011;27912;51.828;5.688;2022-08-25T08:16:35;3.58;;;1.30;;
42244;SDS011;27912;51.828;5.688;2022-08-25T08:19:01;7.93;;;1.30;;
42244;SDS011;27912;51.828;5.688;2022-08-25T08:21:28;2.47;;;1.05;;
42244;SDS011;27912;51.828;5.688;2022-08-25T08:23:56;4.70;;;1.35;;
42244;SDS011;27912;51.828;5.688;2022-08-25T08:26:23;4.00;;;1.25;;
42244;SDS011;27912;51.828;5.688;2022-08-25T08:28:49;3.42;;;1.30;;
42244;SDS011;27912;51.828;5.688;2022-08-25T08:31:16;4.90;;;1.77;;
42244;SDS011;27912;51.828;5.688;2022-08-25T08:33:44;4.65;;;1.33;;
42244;SDS011;27912;51.828;5.688;2022-08-25T08:36:11;3.47;;;1.02;;
42244;SDS011;27912;51.828;5.688;2022-08-25T08:38:41;2.97;;;1.05;;
42244;SDS011;27912;51.828;5.688;2022-08-25T08:44:23;5.22;;;1.20;;
42244;SDS011;27912;51.828;5.688;2022-08-25T08:47:31;4.15;;;1.10;;
42244;SDS011;27912;51.828;5.688;2022-08-25T08:53:12;3.55;;;1.35;;
42244;SDS011;27912;51.828;5.688;2022-08-25T08:55:59;3.72;;;1.65;;
42244;SDS011;27912;51.828;5.688;2022-08-25T08:58:31;3.42;;;0.90;;
42244;SDS011;27912;51.828;5.688;2022-08-25T09:01:11;3.30;;;1.20;;
42244;SDS011;27912;51.828;5.688;2022-08-25T09:03:42;3.95;;;1.15;;
42244;SDS011;27912;51.828;5.688;2022-08-25T09:06:16;4.40;;;1.02;;
42244;SDS011;27912;51.828;5.688;2022-08-25T09:08:46;5.53;;;1.10;;
42244;SDS011;27912;51.828;5.688;2022-08-25T09:11:20;4.25;;;0.88;;
42244;SDS011;27912;51.828;5.688;2022-08-25T09:14:24;4.10;;;1.25;;
42244;SDS011;27912;51.828;5.688;2022-08-25T09:19:56;2.47;;;1.30;;
42244;SDS011;27912;51.828;5.688;2022-08-25T09:28:39;2.92;;;1.38;;
42244;SDS011;27912;51.828;5.688;2022-08-25T09:33:54;2.95;;;1.15;;
42244;SDS011;27912;51.828;5.688;2022-08-25T09:36:22;3.05;;;1.42;;
42244;SDS011;27912;51.828;5.688;2022-08-25T09:38:48;5.68;;;1.20;;
42244;SDS011;27912;51.828;5.688;2022-08-25T09:41:15;3.20;;;1.42;;
42244;SDS011;27912;51.828;5.688;2022-08-25T09:43:43;4.70;;;1.20;;
42244;SDS011;27912;51.828;5.688;2022-08-25T09:46:24;4.15;;;1.45;;
42244;SDS011;27912;51.828;5.688;2022-08-25T09:48:55;2.78;;;1.23;;
42244;SDS011;27912;51.828;5.688;2022-08-25T09:54:05;3.22;;;1.27;;
42244;SDS011;27912;51.828;5.688;2022-08-25T09:56:53;5.10;;;1.50;;
42244;SDS011;27912;51.828;5.688;2022-08-25T09:59:25;3.70;;;1.20;;
42244;SDS011;27912;51.828;5.688;2022-08-25T10:01:57;4.90;;;1.80;;
42244;SDS011;27912;51.828;5.688;2022-08-25T10:04:32;3.15;;;1.35;;
42244;SDS011;27912;51.828;5.688;2022-08-25T10:07:03;6.03;;;1.25;;
42244;SDS011;27912;51.828;5.688;2022-08-25T10:09:44;6.65;;;1.25;;
42244;SDS011;27912;51.828;5.688;2022-08-25T10:12:28;6.05;;;1.35;;
42244;SDS011;27912;51.828;5.688;2022-08-25T10:14:56;2.63;;;1.20;;
42244;SDS011;27912;51.828;5.688;2022-08-25T10:17:23;1.95;;;0.90;;
42244;SDS011;27912;51.828;5.688;2022-08-25T10:19:51;4.03;;;1.02;;
42244;SDS011;27912;51.828;5.688;2022-08-25T10:22:20;2.03;;;0.90;;
42244;SDS011;27912;51.828;5.688;2022-08-25T10:24:49;3.45;;;1.13;;
42244;SDS011;27912;51.828;5.688;2022-08-25T10:35:01;2.08;;;0.50;;
42244;SDS011;27912;51.828;5.688;2022-08-25T10:45:39;3.08;;;0.65;;
42244;SDS011;27912;51.828;5.688;2022-08-25T10:57:01;3.80;;;0.65;;
42244;SDS011;27912;51.828;5.688;2022-08-25T10:59:59;3.20;;;0.93;;
42244;SDS011;27912;51.828;5.688;2022-08-25T11:05:39;2.85;;;0.70;;
42244;SDS011;27912;51.828;5.688;2022-08-25T11:10:53;2.30;;;0.70;;
42244;SDS011;27912;51.828;5.688;2022-08-25T11:16:49;2.25;;;0.70;;
42244;SDS011;27912;51.828;5.688;2022-08-25T11:19:18;3.40;;;0.88;;
42244;SDS011;27912;51.828;5.688;2022-08-25T11:21:47;2.42;;;0.70;;
42244;SDS011;27912;51.828;5.688;2022-08-25T11:27:10;2.05;;;1.00;;
42244;SDS011;27912;51.828;5.688;2022-08-25T11:29:42;1.42;;;0.70;;
42244;SDS011;27912;51.828;5.688;2022-08-25T11:32:17;3.30;;;0.70;;
42244;SDS011;27912;51.828;5.688;2022-08-25T11:34:44;2.63;;;0.70;;
42244;SDS011;27912;51.828;5.688;2022-08-25T11:37:18;2.40;;;0.85;;
42244;SDS011;27912;51.828;5.688;2022-08-25T11:42:44;2.72;;;0.90;;
42244;SDS011;27912;51.828;5.688;2022-08-25T11:45:28;2.92;;;0.70;;
42244;SDS011;27912;51.828;5.688;2022-08-25T11:50:34;3.65;;;0.88;;
42244;SDS011;27912;51.828;5.688;2022-08-25T11:53:32;1.38;;;0.70;;
42244;SDS011;27912;51.828;5.688;2022-08-25T11:56:05;1.90;;;0.70;;
42244;SDS011;27912;51.828;5.688;2022-08-25T12:01:09;2.97;;;0.80;;
42244;SDS011;27912;51.828;5.688;2022-08-25T12:04:08;2.38;;;0.75;;
42244;SDS011;27912;51.828;5.688;2022-08-25T12:09:33;1.55;;;0.70;;
42244;SDS011;27912;51.828;5.688;2022-08-25T12:17:43;1.60;;;0.55;;
42244;SDS011;27912;51.828;5.688;2022-08-25T12:20:09;3.30;;;0.68;;
42244;SDS011;27912;51.828;5.688;2022-08-25T12:25:12;3.78;;;0.70;;
42244;SDS011;27912;51.828;5.688;2022-08-25T12:30:56;1.90;;;0.70;;
42244;SDS011;27912;51.828;5.688;2022-08-25T12:33:32;1.60;;;0.70;;
42244;SDS011;27912;51.828;5.688;2022-08-25T12:38:44;1.63;;;0.70;;
42244;SDS011;27912;51.828;5.688;2022-08-25T12:41:20;2.40;;;0.60;;
42244;SDS011;27912;51.828;5.688;2022-08-25T12:43:50;1.40;;;0.60;;
42244;SDS011;27912;51.828;5.688;2022-08-25T12:54:16;3.13;;;0.70;;
42244;SDS011;27912;51.828;5.688;2022-08-25T12:57:03;1.92;;;0.70;;
42244;SDS011;27912;51.828;5.688;2022-08-25T12:59:49;2.90;;;0.70;;
42244;SDS011;27912;51.828;5.688;2022-08-25T13:02:30;1.92;;;0.50;;
42244;SDS011;27912;51.828;5.688;2022-08-25T13:13:51;1.60;;;0.50;;
42244;SDS011;27912;51.828;5.688;2022-08-25T13:16:25;2.92;;;1.13;;
42244;SDS011;27912;51.828;5.688;2022-08-25T13:18:53;3.00;;;0.60;;
42244;SDS011;27912;51.828;5.688;2022-08-25T13:21:23;2.83;;;0.70;;
42244;SDS011;27912;51.828;5.688;2022-08-25T13:23:58;1.65;;;0.60;;
42244;SDS011;27912;51.828;5.688;2022-08-25T13:26:27;3.25;;;0.60;;
42244;SDS011;27912;51.828;5.688;2022-08-25T13:28:59;2.60;;;0.70;;
42244;SDS011;27912;51.828;5.688;2022-08-25T13:31:36;1.35;;;0.60;;
42244;SDS011;27912;51.828;5.688;2022-08-25T13:34:16;3.05;;;0.50;;
42244;SDS011;27912;51.828;5.688;2022-08-25T13:36:45;1.27;;;0.60;;
42244;SDS011;27912;51.828;5.688;2022-08-25T13:39:31;2.58;;;0.88;;
42244;SDS011;27912;51.828;5.688;2022-08-25T13:41:58;3.92;;;0.60;;
42244;SDS011;27912;51.828;5.688;2022-08-25T13:44:26;2.03;;;0.77;;
42244;SDS011;27912;51.828;5.688;2022-08-25T13:47:04;1.90;;;0.50;;
42244;SDS011;27912;51.828;5.688;2022-08-25T13:49:35;2.20;;;0.60;;
42244;SDS011;27912;51.828;5.688;2022-08-25T13:52:01;3.30;;;0.60;;
42244;SDS011;27912;51.828;5.688;2022-08-25T13:54:33;2.13;;;0.60;;
42244;SDS011;27912;51.828;5.688;2022-08-25T13:57:24;2.40;;;0.60;;
42244;SDS011;27912;51.828;5.688;2022-08-25T13:59:53;1.15;;;0.47;;
42244;SDS011;27912;51.828;5.688;2022-08-25T14:02:44;2.35;;;0.60;;
42244;SDS011;27912;51.828;5.688;2022-08-25T14:05:12;1.17;;;0.50;;
42244;SDS011;27912;51.828;5.688;2022-08-25T14:07:50;1.63;;;0.60;;
42244;SDS011;27912;51.828;5.688;2022-08-25T14:10:40;1.52;;;0.60;;
42244;SDS011;27912;51.828;5.688;2022-08-25T14:15:33;1.70;;;0.50;;
42244;SDS011;27912;51.828;5.688;2022-08-25T14:20:25;2.55;;;0.68;;
42244;SDS011;27912;51.828;5.688;2022-08-25T14:22:54;1.67;;;0.70;;
42244;SDS011;27912;51.828;5.688;2022-08-25T14:25:22;1.40;;;0.60;;
42244;SDS011;27912;51.828;5.688;2022-08-25T14:27:56;1.77;;;0.50;;
42244;SDS011;27912;51.828;5.688;2022-08-25T14:30:23;2.42;;;0.50;;
42244;SDS011;27912;51.828;5.688;2022-08-25T14:32:49;2.35;;;0.60;;
42244;SDS011;27912;51.828;5.688;2022-08-25T14:35:15;3.90;;;0.68;;
42244;SDS011;27912;51.828;5.688;2022-08-25T14:37:42;2.28;;;0.47;;
42244;SDS011;27912;51.828;5.688;2022-08-25T14:40:09;1.33;;;0.57;;
42244;SDS011;27912;51.828;5.688;2022-08-25T14:42:36;1.55;;;0.50;;
42244;SDS011;27912;51.828;5.688;2022-08-25T14:45:02;3.30;;;0.57;;
42244;SDS011;27912;51.828;5.688;2022-08-25T14:47:28;1.58;;;0.52;;
42244;SDS011;27912;51.828;5.688;2022-08-25T14:49:55;2.08;;;0.70;;
42244;SDS011;27912;51.828;5.688;2022-08-25T14:52:23;4.57;;;0.57;;
42244;SDS011;27912;51.828;5.688;2022-08-25T14:54:52;1.80;;;0.60;;
42244;SDS011;27912;51.828;5.688;2022-08-25T14:57:18;2.42;;;0.70;;
42244;SDS011;27912;51.828;5.688;2022-08-25T14:59:44;1.60;;;0.57;;
42244;SDS011;27912;51.828;5.688;2022-08-25T15:02:11;1.40;;;0.60;;
42244;SDS011;27912;51.828;5.688;2022-08-25T15:04:42;3.30;;;0.70;;
42244;SDS011;27912;51.828;5.688;2022-08-25T15:07:30;2.17;;;0.50;;
42244;SDS011;27912;51.828;5.688;2022-08-25T15:10:16;3.70;;;0.70;;
42244;SDS011;27912;51.828;5.688;2022-08-25T15:12:42;1.70;;;0.60;;
42244;SDS011;27912;51.828;5.688;2022-08-25T15:15:08;1.30;;;0.63;;
42244;SDS011;27912;51.828;5.688;2022-08-25T15:17:34;2.58;;;0.60;;
42244;SDS011;27912;51.828;5.688;2022-08-25T15:20:00;2.92;;;0.65;;
42244;SDS011;27912;51.828;5.688;2022-08-25T15:22:25;1.88;;;0.60;;
42244;SDS011;27912;51.828;5.688;2022-08-25T15:24:51;2.03;;;0.70;;
42244;SDS011;27912;51.828;5.688;2022-08-25T15:27:18;1.15;;;0.52;;
42244;SDS011;27912;51.828;5.688;2022-08-25T15:29:45;1.40;;;0.68;;
42244;SDS011;27912;51.828;5.688;2022-08-25T15:32:12;1.13;;;0.60;;
42244;SDS011;27912;51.828;5.688;2022-08-25T15:34:38;3.42;;;0.60;;
42244;SDS011;27912;51.828;5.688;2022-08-25T15:37:08;2.03;;;0.63;;
42244;SDS011;27912;51.828;5.688;2022-08-25T15:39:36;1.77;;;0.80;;
42244;SDS011;27912;51.828;5.688;2022-08-25T15:42:02;1.10;;;0.60;;
42244;SDS011;27912;51.828;5.688;2022-08-25T15:44:29;2.30;;;0.60;;
42244;SDS011;27912;51.828;5.688;2022-08-25T15:46:55;2.80;;;0.65;;
42244;SDS011;27912;51.828;5.688;2022-08-25T15:49:22;2.45;;;0.70;;
42244;SDS011;27912;51.828;5.688;2022-08-25T15:51:47;1.63;;;0.73;;
42244;SDS011;27912;51.828;5.688;2022-08-25T15:54:13;1.58;;;0.70;;
42244;SDS011;27912;51.828;5.688;2022-08-25T15:56:38;1.77;;;0.60;;
42244;SDS011;27912;51.828;5.688;2022-08-25T15:59:04;3.30;;;0.60;;
42244;SDS011;27912;51.828;5.688;2022-08-25T16:01:31;1.60;;;0.65;;
42244;SDS011;27912;51.828;5.688;2022-08-25T16:03:57;1.50;;;0.60;;
42244;SDS011;27912;51.828;5.688;2022-08-25T16:06:25;1.55;;;0.60;;
42244;SDS011;27912;51.828;5.688;2022-08-25T16:08:51;3.00;;;0.85;;
42244;SDS011;27912;51.828;5.688;2022-08-25T16:11:18;2.58;;;0.60;;
42244;SDS011;27912;51.828;5.688;2022-08-25T16:13:45;3.17;;;0.70;;
42244;SDS011;27912;51.828;5.688;2022-08-25T16:16:12;1.48;;;0.55;;
42244;SDS011;27912;51.828;5.688;2022-08-25T16:18:39;1.60;;;0.80;;
42244;SDS011;27912;51.828;5.688;2022-08-25T16:21:09;1.38;;;0.60;;
42244;SDS011;27912;51.828;5.688;2022-08-25T16:23:37;2.75;;;0.65;;
42244;SDS011;27912;51.828;5.688;2022-08-25T16:26:04;2.78;;;0.70;;
42244;SDS011;27912;51.828;5.688;2022-08-25T16:28:32;3.47;;;0.50;;
42244;SDS011;27912;51.828;5.688;2022-08-25T16:30:59;1.58;;;0.60;;
42244;SDS011;27912;51.828;5.688;2022-08-25T16:33:24;3.50;;;0.80;;
42244;SDS011;27912;51.828;5.688;2022-08-25T16:35:50;2.28;;;0.65;;
42244;SDS011;27912;51.828;5.688;2022-08-25T16:38:16;2.75;;;0.90;;
42244;SDS011;27912;51.828;5.688;2022-08-25T16:40:41;1.25;;;0.60;;
42244;SDS011;27912;51.828;5.688;2022-08-25T16:43:08;3.58;;;0.80;;
42244;SDS011;27912;51.828;5.688;2022-08-25T16:45:34;1.65;;;0.60;;
42244;SDS011;27912;51.828;5.688;2022-08-25T16:48:00;1.45;;;0.60;;